sensor_id;sensor_type;location;lat;lon;timestamp;P1;durP1;ratioP1;P2;durP2;ratioP2
47615;SDS011;69146;52.266;7.000;2023-04-27T00:01:38;8.45;;;5.80;;
47615;SDS011;69146;52.266;7.000;2023-04-27T00:04:23;12.15;;;7.13;;
47615;SDS011;69146;52.266;7.000;2023-04-27T00:07:08;15.20;;;8.05;;
47615;SDS011;69146;52.266;7.000;2023-04-27T00:09:52;11.90;;;6.90;;
47615;SDS011;69146;52.266;7.000;2023-04-27T00:12:38;13.30;;;6.90;;
47615;SDS011;69146;52.266;7.000;2023-04-27T00:15:26;8.73;;;6.18;;
47615;SDS011;69146;52.266;7.000;2023-04-27T00:18:11;11.73;;;6.18;;
47615;SDS011;69146;52.266;7.000;2023-04-27T00:20:56;10.65;;;6.28;;
47615;SDS011;69146;52.266;7.000;2023-04-27T00:23:40;9.23;;;5.78;;
47615;SDS011;69146;52.266;7.000;2023-04-27T00:26:25;9.48;;;6.30;;
47615;SDS011;69146;52.266;7.000;2023-04-27T00:29:10;10.82;;;6.38;;
47615;SDS011;69146;52.266;7.000;2023-04-27T00:31:56;11.10;;;6.10;;
47615;SDS011;69146;52.266;7.000;2023-04-27T00:34:41;12.98;;;6.25;;
47615;SDS011;69146;52.266;7.000;2023-04-27T00:37:26;12.07;;;6.07;;
47615;SDS011;69146;52.266;7.000;2023-04-27T00:40:11;9.63;;;5.88;;
47615;SDS011;69146;52.266;7.000;2023-04-27T00:42:56;8.27;;;6.03;;
47615;SDS011;69146;52.266;7.000;2023-04-27T00:45:41;11.02;;;5.65;;
47615;SDS011;69146;52.266;7.000;2023-04-27T00:48:29;11.27;;;6.00;;
47615;SDS011;69146;52.266;7.000;2023-04-27T00:51:14;8.85;;;6.63;;
47615;SDS011;69146;52.266;7.000;2023-04-27T00:53:58;10.07;;;6.65;;
47615;SDS011;69146;52.266;7.000;2023-04-27T00:56:44;8.77;;;5.88;;
47615;SDS011;69146;52.266;7.000;2023-04-27T00:59:31;9.90;;;6.07;;
47615;SDS011;69146;52.266;7.000;2023-04-27T01:02:16;9.30;;;6.50;;
47615;SDS011;69146;52.266;7.000;2023-04-27T01:05:03;10.23;;;5.93;;
47615;SDS011;69146;52.266;7.000;2023-04-27T01:07:48;8.35;;;6.00;;
47615;SDS011;69146;52.266;7.000;2023-04-27T01:10:34;8.02;;;5.80;;
47615;SDS011;69146;52.266;7.000;2023-04-27T01:13:20;9.85;;;5.60;;
47615;SDS011;69146;52.266;7.000;2023-04-27T01:16:05;12.20;;;6.15;;
47615;SDS011;69146;52.266;7.000;2023-04-27T01:18:50;10.30;;;6.43;;
47615;SDS011;69146;52.266;7.000;2023-04-27T01:21:36;10.52;;;5.45;;
47615;SDS011;69146;52.266;7.000;2023-04-27T01:24:23;7.57;;;5.38;;
47615;SDS011;69146;52.266;7.000;2023-04-27T01:27:07;9.00;;;6.05;;
47615;SDS011;69146;52.266;7.000;2023-04-27T01:29:53;10.50;;;5.68;;
47615;SDS011;69146;52.266;7.000;2023-04-27T01:32:38;7.28;;;5.43;;
47615;SDS011;69146;52.266;7.000;2023-04-27T01:35:25;7.28;;;5.80;;
47615;SDS011;69146;52.266;7.000;2023-04-27T01:38:10;9.68;;;6.20;;
47615;SDS011;69146;52.266;7.000;2023-04-27T01:40:58;11.15;;;7.15;;
47615;SDS011;69146;52.266;7.000;2023-04-27T01:43:46;10.18;;;6.05;;
47615;SDS011;69146;52.266;7.000;2023-04-27T01:46:31;8.25;;;6.05;;
47615;SDS011;69146;52.266;7.000;2023-04-27T01:49:16;10.15;;;5.38;;
47615;SDS011;69146;52.266;7.000;2023-04-27T01:52:01;9.57;;;5.80;;
47615;SDS011;69146;52.266;7.000;2023-04-27T01:54:46;12.15;;;6.20;;
47615;SDS011;69146;52.266;7.000;2023-04-27T01:57:33;11.85;;;5.82;;
47615;SDS011;69146;52.266;7.000;2023-04-27T02:00:18;10.10;;;6.25;;
47615;SDS011;69146;52.266;7.000;2023-04-27T02:03:03;13.02;;;7.20;;
47615;SDS011;69146;52.266;7.000;2023-04-27T02:05:47;11.05;;;6.60;;
47615;SDS011;69146;52.266;7.000;2023-04-27T02:08:32;16.83;;;6.82;;
47615;SDS011;69146;52.266;7.000;2023-04-27T02:11:17;17.38;;;7.97;;
47615;SDS011;69146;52.266;7.000;2023-04-27T02:14:04;11.68;;;6.60;;
47615;SDS011;69146;52.266;7.000;2023-04-27T02:16:49;17.83;;;7.97;;
47615;SDS011;69146;52.266;7.000;2023-04-27T02:19:33;16.73;;;7.30;;
47615;SDS011;69146;52.266;7.000;2023-04-27T02:22:19;12.00;;;6.95;;
47615;SDS011;69146;52.266;7.000;2023-04-27T02:25:04;14.10;;;7.47;;
47615;SDS011;69146;52.266;7.000;2023-04-27T02:27:50;13.80;;;7.32;;
47615;SDS011;69146;52.266;7.000;2023-04-27T02:30:36;12.60;;;6.72;;
47615;SDS011;69146;52.266;7.000;2023-04-27T02:33:21;13.82;;;7.45;;
47615;SDS011;69146;52.266;7.000;2023-04-27T02:36:09;10.10;;;6.13;;
47615;SDS011;69146;52.266;7.000;2023-04-27T02:38:54;11.15;;;6.20;;
47615;SDS011;69146;52.266;7.000;2023-04-27T02:41:39;9.05;;;5.63;;
47615;SDS011;69146;52.266;7.000;2023-04-27T02:44:24;8.80;;;5.57;;
47615;SDS011;69146;52.266;7.000;2023-04-27T02:47:10;11.52;;;5.90;;
47615;SDS011;69146;52.266;7.000;2023-04-27T02:49:55;10.07;;;6.30;;
47615;SDS011;69146;52.266;7.000;2023-04-27T02:52:40;12.13;;;6.22;;
47615;SDS011;69146;52.266;7.000;2023-04-27T02:55:25;9.68;;;5.80;;
47615;SDS011;69146;52.266;7.000;2023-04-27T02:58:10;8.32;;;5.95;;
47615;SDS011;69146;52.266;7.000;2023-04-27T03:03:42;9.63;;;5.88;;
47615;SDS011;69146;52.266;7.000;2023-04-27T03:06:28;8.38;;;5.55;;
47615;SDS011;69146;52.266;7.000;2023-04-27T03:09:12;10.23;;;6.47;;
47615;SDS011;69146;52.266;7.000;2023-04-27T03:11:57;10.45;;;5.80;;
47615;SDS011;69146;52.266;7.000;2023-04-27T03:14:42;13.00;;;7.40;;
47615;SDS011;69146;52.266;7.000;2023-04-27T03:17:27;11.85;;;7.40;;
47615;SDS011;69146;52.266;7.000;2023-04-27T03:20:13;12.70;;;7.00;;
47615;SDS011;69146;52.266;7.000;2023-04-27T03:23:00;10.90;;;6.80;;
47615;SDS011;69146;52.266;7.000;2023-04-27T03:25:45;11.40;;;7.15;;
47615;SDS011;69146;52.266;7.000;2023-04-27T03:28:32;12.27;;;7.47;;
47615;SDS011;69146;52.266;7.000;2023-04-27T03:31:16;12.23;;;7.68;;
47615;SDS011;69146;52.266;7.000;2023-04-27T03:34:07;11.97;;;7.50;;
47615;SDS011;69146;52.266;7.000;2023-04-27T03:36:54;9.98;;;7.28;;
47615;SDS011;69146;52.266;7.000;2023-04-27T03:39:39;10.77;;;7.30;;
47615;SDS011;69146;52.266;7.000;2023-04-27T03:42:24;12.05;;;7.35;;
47615;SDS011;69146;52.266;7.000;2023-04-27T03:45:09;10.25;;;7.45;;
47615;SDS011;69146;52.266;7.000;2023-04-27T03:47:55;10.27;;;7.00;;
47615;SDS011;69146;52.266;7.000;2023-04-27T03:50:40;11.70;;;7.03;;
47615;SDS011;69146;52.266;7.000;2023-04-27T03:56:11;13.43;;;7.13;;
47615;SDS011;69146;52.266;7.000;2023-04-27T03:58:56;11.57;;;6.85;;
47615;SDS011;69146;52.266;7.000;2023-04-27T04:01:41;9.30;;;7.00;;
47615;SDS011;69146;52.266;7.000;2023-04-27T04:04:26;9.43;;;6.13;;
47615;SDS011;69146;52.266;7.000;2023-04-27T04:07:11;10.63;;;6.32;;
47615;SDS011;69146;52.266;7.000;2023-04-27T04:09:57;9.77;;;6.45;;
47615;SDS011;69146;52.266;7.000;2023-04-27T04:12:42;9.70;;;6.35;;
47615;SDS011;69146;52.266;7.000;2023-04-27T04:15:27;11.43;;;5.80;;
47615;SDS011;69146;52.266;7.000;2023-04-27T04:18:12;10.00;;;6.20;;
47615;SDS011;69146;52.266;7.000;2023-04-27T04:21:01;10.68;;;7.07;;
47615;SDS011;69146;52.266;7.000;2023-04-27T04:26:32;10.13;;;6.45;;
47615;SDS011;69146;52.266;7.000;2023-04-27T04:29:18;11.05;;;6.65;;
47615;SDS011;69146;52.266;7.000;2023-04-27T04:32:04;11.27;;;6.22;;
47615;SDS011;69146;52.266;7.000;2023-04-27T04:34:50;12.85;;;7.22;;
47615;SDS011;69146;52.266;7.000;2023-04-27T04:37:37;11.75;;;7.65;;
47615;SDS011;69146;52.266;7.000;2023-04-27T04:40:22;11.43;;;7.53;;
47615;SDS011;69146;52.266;7.000;2023-04-27T04:43:12;13.77;;;9.10;;
47615;SDS011;69146;52.266;7.000;2023-04-27T04:45:57;11.82;;;7.72;;
47615;SDS011;69146;52.266;7.000;2023-04-27T04:48:42;13.35;;;8.15;;
47615;SDS011;69146;52.266;7.000;2023-04-27T04:51:27;11.57;;;7.57;;
47615;SDS011;69146;52.266;7.000;2023-04-27T04:54:12;13.20;;;8.18;;
47615;SDS011;69146;52.266;7.000;2023-04-27T04:56:57;16.42;;;7.82;;
47615;SDS011;69146;52.266;7.000;2023-04-27T04:59:43;9.60;;;7.93;;
47615;SDS011;69146;52.266;7.000;2023-04-27T05:02:28;14.10;;;7.55;;
47615;SDS011;69146;52.266;7.000;2023-04-27T05:05:13;14.13;;;8.30;;
47615;SDS011;69146;52.266;7.000;2023-04-27T05:07:59;12.55;;;8.27;;
47615;SDS011;69146;52.266;7.000;2023-04-27T05:10:47;12.38;;;8.30;;
47615;SDS011;69146;52.266;7.000;2023-04-27T05:13:32;10.63;;;7.88;;
47615;SDS011;69146;52.266;7.000;2023-04-27T05:16:19;15.50;;;8.27;;
47615;SDS011;69146;52.266;7.000;2023-04-27T05:19:04;12.18;;;8.00;;
47615;SDS011;69146;52.266;7.000;2023-04-27T05:21:49;13.75;;;8.20;;
47615;SDS011;69146;52.266;7.000;2023-04-27T05:24:34;11.30;;;8.05;;
47615;SDS011;69146;52.266;7.000;2023-04-27T05:27:19;15.57;;;8.38;;
47615;SDS011;69146;52.266;7.000;2023-04-27T05:30:04;12.43;;;8.32;;
47615;SDS011;69146;52.266;7.000;2023-04-27T05:32:54;14.32;;;8.52;;
47615;SDS011;69146;52.266;7.000;2023-04-27T05:35:39;16.65;;;8.20;;
47615;SDS011;69146;52.266;7.000;2023-04-27T05:38:24;12.93;;;8.85;;
47615;SDS011;69146;52.266;7.000;2023-04-27T05:41:09;15.05;;;8.10;;
47615;SDS011;69146;52.266;7.000;2023-04-27T05:43:54;13.75;;;8.55;;
47615;SDS011;69146;52.266;7.000;2023-04-27T05:46:39;13.50;;;8.63;;
47615;SDS011;69146;52.266;7.000;2023-04-27T05:49:25;11.88;;;8.45;;
47615;SDS011;69146;52.266;7.000;2023-04-27T05:52:10;12.45;;;8.77;;
47615;SDS011;69146;52.266;7.000;2023-04-27T05:54:55;14.40;;;8.95;;
47615;SDS011;69146;52.266;7.000;2023-04-27T05:57:41;14.60;;;8.52;;
47615;SDS011;69146;52.266;7.000;2023-04-27T06:00:26;11.95;;;8.15;;
47615;SDS011;69146;52.266;7.000;2023-04-27T06:03:11;11.13;;;8.05;;
47615;SDS011;69146;52.266;7.000;2023-04-27T06:05:58;15.65;;;8.48;;
47615;SDS011;69146;52.266;7.000;2023-04-27T06:08:44;12.98;;;7.90;;
47615;SDS011;69146;52.266;7.000;2023-04-27T06:11:29;13.13;;;8.15;;
47615;SDS011;69146;52.266;7.000;2023-04-27T06:14:14;14.52;;;7.57;;
47615;SDS011;69146;52.266;7.000;2023-04-27T06:16:59;13.45;;;7.88;;
47615;SDS011;69146;52.266;7.000;2023-04-27T06:19:44;12.60;;;7.88;;
47615;SDS011;69146;52.266;7.000;2023-04-27T06:22:31;12.32;;;7.85;;
47615;SDS011;69146;52.266;7.000;2023-04-27T06:25:16;12.70;;;8.00;;
47615;SDS011;69146;52.266;7.000;2023-04-27T06:28:01;12.23;;;8.27;;
47615;SDS011;69146;52.266;7.000;2023-04-27T06:30:46;11.80;;;7.43;;
47615;SDS011;69146;52.266;7.000;2023-04-27T06:33:34;11.30;;;7.53;;
47615;SDS011;69146;52.266;7.000;2023-04-27T06:36:18;12.40;;;7.60;;
47615;SDS011;69146;52.266;7.000;2023-04-27T06:39:05;10.77;;;7.32;;
47615;SDS011;69146;52.266;7.000;2023-04-27T06:41:50;12.98;;;6.68;;
47615;SDS011;69146;52.266;7.000;2023-04-27T06:44:35;9.77;;;6.30;;
47615;SDS011;69146;52.266;7.000;2023-04-27T06:50:06;10.52;;;6.80;;
47615;SDS011;69146;52.266;7.000;2023-04-27T06:52:51;11.80;;;6.53;;
47615;SDS011;69146;52.266;7.000;2023-04-27T06:55:41;12.00;;;6.53;;
47615;SDS011;69146;52.266;7.000;2023-04-27T06:58:25;9.48;;;6.60;;
47615;SDS011;69146;52.266;7.000;2023-04-27T07:01:11;8.50;;;5.60;;
47615;SDS011;69146;52.266;7.000;2023-04-27T07:03:56;9.65;;;6.25;;
47615;SDS011;69146;52.266;7.000;2023-04-27T07:06:40;10.18;;;5.95;;
47615;SDS011;69146;52.266;7.000;2023-04-27T07:09:25;9.30;;;4.88;;
47615;SDS011;69146;52.266;7.000;2023-04-27T07:12:13;8.63;;;4.57;;
47615;SDS011;69146;52.266;7.000;2023-04-27T07:15:03;9.48;;;5.10;;
47615;SDS011;69146;52.266;7.000;2023-04-27T07:17:50;8.98;;;4.70;;
47615;SDS011;69146;52.266;7.000;2023-04-27T07:20:37;6.05;;;3.70;;
47615;SDS011;69146;52.266;7.000;2023-04-27T07:23:22;7.47;;;3.90;;
47615;SDS011;69146;52.266;7.000;2023-04-27T07:26:10;10.07;;;4.10;;
47615;SDS011;69146;52.266;7.000;2023-04-27T07:28:56;8.88;;;3.83;;
47615;SDS011;69146;52.266;7.000;2023-04-27T07:31:40;6.10;;;3.30;;
47615;SDS011;69146;52.266;7.000;2023-04-27T07:34:25;4.90;;;3.25;;
47615;SDS011;69146;52.266;7.000;2023-04-27T07:37:11;4.93;;;2.78;;
47615;SDS011;69146;52.266;7.000;2023-04-27T07:39:57;5.95;;;3.15;;
47615;SDS011;69146;52.266;7.000;2023-04-27T07:42:42;6.18;;;3.40;;
47615;SDS011;69146;52.266;7.000;2023-04-27T07:45:31;9.02;;;3.17;;
47615;SDS011;69146;52.266;7.000;2023-04-27T07:48:18;8.57;;;3.08;;
47615;SDS011;69146;52.266;7.000;2023-04-27T07:51:03;6.18;;;3.20;;
47615;SDS011;69146;52.266;7.000;2023-04-27T07:53:47;7.28;;;3.70;;
47615;SDS011;69146;52.266;7.000;2023-04-27T07:56:34;6.30;;;3.10;;
47615;SDS011;69146;52.266;7.000;2023-04-27T07:59:23;4.70;;;3.00;;
47615;SDS011;69146;52.266;7.000;2023-04-27T08:02:12;7.90;;;3.13;;
47615;SDS011;69146;52.266;7.000;2023-04-27T08:04:57;5.28;;;2.78;;
47615;SDS011;69146;52.266;7.000;2023-04-27T08:07:42;9.30;;;3.47;;
47615;SDS011;69146;52.266;7.000;2023-04-27T08:10:27;6.05;;;3.28;;
47615;SDS011;69146;52.266;7.000;2023-04-27T08:13:12;5.75;;;2.75;;
47615;SDS011;69146;52.266;7.000;2023-04-27T08:15:57;7.18;;;2.72;;
47615;SDS011;69146;52.266;7.000;2023-04-27T08:18:43;5.60;;;2.85;;
47615;SDS011;69146;52.266;7.000;2023-04-27T08:21:28;6.25;;;2.50;;
47615;SDS011;69146;52.266;7.000;2023-04-27T08:24:13;3.15;;;1.92;;
47615;SDS011;69146;52.266;7.000;2023-04-27T08:26:58;4.30;;;2.15;;
47615;SDS011;69146;52.266;7.000;2023-04-27T08:29:45;5.78;;;2.28;;
47615;SDS011;69146;52.266;7.000;2023-04-27T08:32:31;3.75;;;2.33;;
47615;SDS011;69146;52.266;7.000;2023-04-27T08:35:20;4.15;;;2.15;;
47615;SDS011;69146;52.266;7.000;2023-04-27T08:38:05;3.22;;;2.30;;
47615;SDS011;69146;52.266;7.000;2023-04-27T08:40:52;5.53;;;2.80;;
47615;SDS011;69146;52.266;7.000;2023-04-27T08:43:40;3.30;;;2.30;;
47615;SDS011;69146;52.266;7.000;2023-04-27T08:46:25;4.70;;;2.20;;
47615;SDS011;69146;52.266;7.000;2023-04-27T08:49:13;6.50;;;2.40;;
47615;SDS011;69146;52.266;7.000;2023-04-27T08:52:00;6.57;;;2.58;;
47615;SDS011;69146;52.266;7.000;2023-04-27T08:54:45;4.07;;;2.38;;
47615;SDS011;69146;52.266;7.000;2023-04-27T08:57:30;4.55;;;2.42;;
47615;SDS011;69146;52.266;7.000;2023-04-27T09:00:16;5.53;;;2.67;;
47615;SDS011;69146;52.266;7.000;2023-04-27T09:03:02;5.85;;;2.80;;
47615;SDS011;69146;52.266;7.000;2023-04-27T09:05:49;4.38;;;2.13;;
47615;SDS011;69146;52.266;7.000;2023-04-27T09:08:42;4.28;;;2.20;;
47615;SDS011;69146;52.266;7.000;2023-04-27T09:11:29;4.93;;;2.35;;
47615;SDS011;69146;52.266;7.000;2023-04-27T09:14:15;4.63;;;2.20;;
47615;SDS011;69146;52.266;7.000;2023-04-27T09:17:01;3.85;;;2.95;;
47615;SDS011;69146;52.266;7.000;2023-04-27T09:19:49;5.15;;;2.10;;
47615;SDS011;69146;52.266;7.000;2023-04-27T09:22:41;4.90;;;2.25;;
47615;SDS011;69146;52.266;7.000;2023-04-27T09:25:30;4.75;;;2.95;;
47615;SDS011;69146;52.266;7.000;2023-04-27T09:28:15;5.68;;;2.47;;
47615;SDS011;69146;52.266;7.000;2023-04-27T09:31:01;5.72;;;2.38;;
47615;SDS011;69146;52.266;7.000;2023-04-27T09:33:53;4.60;;;2.67;;
47615;SDS011;69146;52.266;7.000;2023-04-27T09:36:39;5.75;;;2.60;;
47615;SDS011;69146;52.266;7.000;2023-04-27T09:39:24;5.38;;;2.50;;
47615;SDS011;69146;52.266;7.000;2023-04-27T09:42:11;3.70;;;2.30;;
47615;SDS011;69146;52.266;7.000;2023-04-27T09:44:59;5.93;;;2.70;;
47615;SDS011;69146;52.266;7.000;2023-04-27T09:47:45;4.45;;;2.30;;
47615;SDS011;69146;52.266;7.000;2023-04-27T09:50:34;3.47;;;2.20;;
47615;SDS011;69146;52.266;7.000;2023-04-27T09:53:24;5.78;;;2.70;;
47615;SDS011;69146;52.266;7.000;2023-04-27T09:56:23;4.75;;;2.22;;
47615;SDS011;69146;52.266;7.000;2023-04-27T09:59:19;4.50;;;2.47;;
47615;SDS011;69146;52.266;7.000;2023-04-27T10:02:16;6.45;;;2.88;;
47615;SDS011;69146;52.266;7.000;2023-04-27T10:05:12;7.13;;;3.00;;
47615;SDS011;69146;52.266;7.000;2023-04-27T10:08:08;5.15;;;3.03;;
47615;SDS011;69146;52.266;7.000;2023-04-27T10:11:14;4.55;;;2.63;;
47615;SDS011;69146;52.266;7.000;2023-04-27T10:14:05;6.72;;;2.92;;
47615;SDS011;69146;52.266;7.000;2023-04-27T10:16:53;5.70;;;2.92;;
47615;SDS011;69146;52.266;7.000;2023-04-27T10:19:39;5.35;;;2.78;;
47615;SDS011;69146;52.266;7.000;2023-04-27T10:22:35;5.70;;;3.40;;
47615;SDS011;69146;52.266;7.000;2023-04-27T10:25:24;6.10;;;3.30;;
47615;SDS011;69146;52.266;7.000;2023-04-27T10:28:14;3.97;;;3.03;;
47615;SDS011;69146;52.266;7.000;2023-04-27T10:31:08;5.75;;;3.30;;
47615;SDS011;69146;52.266;7.000;2023-04-27T10:34:08;5.60;;;3.10;;
47615;SDS011;69146;52.266;7.000;2023-04-27T10:37:03;4.68;;;3.25;;
47615;SDS011;69146;52.266;7.000;2023-04-27T10:39:49;6.50;;;3.10;;
47615;SDS011;69146;52.266;7.000;2023-04-27T10:45:25;4.97;;;3.30;;
47615;SDS011;69146;52.266;7.000;2023-04-27T10:48:13;4.45;;;3.03;;
47615;SDS011;69146;52.266;7.000;2023-04-27T10:51:02;4.68;;;2.42;;
47615;SDS011;69146;52.266;7.000;2023-04-27T10:53:50;4.03;;;2.72;;
47615;SDS011;69146;52.266;7.000;2023-04-27T10:56:37;3.53;;;2.67;;
47615;SDS011;69146;52.266;7.000;2023-04-27T10:59:23;4.28;;;2.58;;
47615;SDS011;69146;52.266;7.000;2023-04-27T11:02:10;7.07;;;2.90;;
47615;SDS011;69146;52.266;7.000;2023-04-27T11:04:57;5.38;;;2.63;;
47615;SDS011;69146;52.266;7.000;2023-04-27T11:07:46;3.85;;;2.83;;
47615;SDS011;69146;52.266;7.000;2023-04-27T11:10:32;5.22;;;2.80;;
47615;SDS011;69146;52.266;7.000;2023-04-27T11:13:20;4.07;;;2.72;;
47615;SDS011;69146;52.266;7.000;2023-04-27T11:16:09;4.45;;;2.38;;
47615;SDS011;69146;52.266;7.000;2023-04-27T11:21:38;3.35;;;2.17;;
47615;SDS011;69146;52.266;7.000;2023-04-27T11:27:10;4.07;;;2.30;;
47615;SDS011;69146;52.266;7.000;2023-04-27T11:30:02;3.53;;;2.30;;
47615;SDS011;69146;52.266;7.000;2023-04-27T11:33:07;4.35;;;2.63;;
47615;SDS011;69146;52.266;7.000;2023-04-27T11:35:56;3.75;;;2.30;;
47615;SDS011;69146;52.266;7.000;2023-04-27T11:38:44;4.57;;;2.25;;
47615;SDS011;69146;52.266;7.000;2023-04-27T11:41:34;3.95;;;2.45;;
47615;SDS011;69146;52.266;7.000;2023-04-27T11:44:29;8.27;;;2.53;;
47615;SDS011;69146;52.266;7.000;2023-04-27T11:47:16;4.82;;;2.45;;
47615;SDS011;69146;52.266;7.000;2023-04-27T11:50:07;3.85;;;2.55;;
47615;SDS011;69146;52.266;7.000;2023-04-27T11:52:53;5.95;;;2.78;;
47615;SDS011;69146;52.266;7.000;2023-04-27T11:55:39;6.35;;;2.50;;
47615;SDS011;69146;52.266;7.000;2023-04-27T12:01:13;4.55;;;2.85;;
47615;SDS011;69146;52.266;7.000;2023-04-27T12:04:00;4.00;;;3.13;;
47615;SDS011;69146;52.266;7.000;2023-04-27T12:06:46;4.93;;;2.88;;
47615;SDS011;69146;52.266;7.000;2023-04-27T12:09:30;3.92;;;2.92;;
47615;SDS011;69146;52.266;7.000;2023-04-27T12:12:17;4.57;;;3.13;;
47615;SDS011;69146;52.266;7.000;2023-04-27T12:15:07;7.65;;;3.55;;
47615;SDS011;69146;52.266;7.000;2023-04-27T12:17:53;5.65;;;3.30;;
47615;SDS011;69146;52.266;7.000;2023-04-27T12:20:38;6.68;;;3.72;;
47615;SDS011;69146;52.266;7.000;2023-04-27T12:23:23;4.38;;;3.10;;
47615;SDS011;69146;52.266;7.000;2023-04-27T12:26:08;5.03;;;2.72;;
47615;SDS011;69146;52.266;7.000;2023-04-27T12:28:53;5.60;;;3.25;;
47615;SDS011;69146;52.266;7.000;2023-04-27T12:31:39;4.63;;;2.83;;
47615;SDS011;69146;52.266;7.000;2023-04-27T12:34:24;5.55;;;3.22;;
47615;SDS011;69146;52.266;7.000;2023-04-27T12:37:09;5.60;;;3.00;;
47615;SDS011;69146;52.266;7.000;2023-04-27T12:39:55;4.57;;;3.20;;
47615;SDS011;69146;52.266;7.000;2023-04-27T12:42:39;5.25;;;3.10;;
47615;SDS011;69146;52.266;7.000;2023-04-27T12:45:24;9.60;;;3.20;;
47615;SDS011;69146;52.266;7.000;2023-04-27T12:48:11;4.18;;;3.03;;
47615;SDS011;69146;52.266;7.000;2023-04-27T12:50:56;3.50;;;2.85;;
47615;SDS011;69146;52.266;7.000;2023-04-27T12:53:42;5.30;;;3.30;;
47615;SDS011;69146;52.266;7.000;2023-04-27T12:56:27;4.43;;;2.97;;
47615;SDS011;69146;52.266;7.000;2023-04-27T12:59:12;5.32;;;3.28;;
47615;SDS011;69146;52.266;7.000;2023-04-27T13:01:56;4.38;;;2.80;;
47615;SDS011;69146;52.266;7.000;2023-04-27T13:04:43;4.65;;;3.10;;
47615;SDS011;69146;52.266;7.000;2023-04-27T13:07:29;4.38;;;2.97;;
47615;SDS011;69146;52.266;7.000;2023-04-27T13:10:14;4.57;;;2.95;;
47615;SDS011;69146;52.266;7.000;2023-04-27T13:12:59;5.82;;;3.00;;
47615;SDS011;69146;52.266;7.000;2023-04-27T13:15:44;5.20;;;2.88;;
47615;SDS011;69146;52.266;7.000;2023-04-27T13:18:29;4.65;;;2.95;;
47615;SDS011;69146;52.266;7.000;2023-04-27T13:21:15;6.07;;;3.45;;
47615;SDS011;69146;52.266;7.000;2023-04-27T13:24:01;5.22;;;3.20;;
47615;SDS011;69146;52.266;7.000;2023-04-27T13:26:46;5.75;;;3.10;;
47615;SDS011;69146;52.266;7.000;2023-04-27T13:29:30;5.82;;;3.53;;
47615;SDS011;69146;52.266;7.000;2023-04-27T13:32:15;6.53;;;3.78;;
47615;SDS011;69146;52.266;7.000;2023-04-27T13:35:01;6.03;;;3.45;;
47615;SDS011;69146;52.266;7.000;2023-04-27T13:37:48;4.20;;;3.20;;
47615;SDS011;69146;52.266;7.000;2023-04-27T13:40:33;5.90;;;3.53;;
47615;SDS011;69146;52.266;7.000;2023-04-27T13:43:18;5.68;;;3.22;;
47615;SDS011;69146;52.266;7.000;2023-04-27T13:46:03;7.80;;;3.42;;
47615;SDS011;69146;52.266;7.000;2023-04-27T13:48:51;4.07;;;3.05;;
47615;SDS011;69146;52.266;7.000;2023-04-27T13:51:36;6.63;;;3.55;;
47615;SDS011;69146;52.266;7.000;2023-04-27T13:54:25;6.07;;;3.30;;
47615;SDS011;69146;52.266;7.000;2023-04-27T13:57:10;4.85;;;3.13;;
47615;SDS011;69146;52.266;7.000;2023-04-27T13:59:55;6.50;;;3.22;;
47615;SDS011;69146;52.266;7.000;2023-04-27T14:02:39;4.07;;;3.47;;
47615;SDS011;69146;52.266;7.000;2023-04-27T14:08:09;6.90;;;3.00;;
47615;SDS011;69146;52.266;7.000;2023-04-27T14:10:56;4.65;;;2.80;;
47615;SDS011;69146;52.266;7.000;2023-04-27T14:13:40;4.25;;;2.80;;
47615;SDS011;69146;52.266;7.000;2023-04-27T14:16:25;3.90;;;2.92;;
47615;SDS011;69146;52.266;7.000;2023-04-27T14:19:10;5.45;;;3.13;;
47615;SDS011;69146;52.266;7.000;2023-04-27T14:21:58;4.57;;;3.30;;
47615;SDS011;69146;52.266;7.000;2023-04-27T14:24:44;7.25;;;3.70;;
47615;SDS011;69146;52.266;7.000;2023-04-27T14:27:30;4.28;;;3.20;;
47615;SDS011;69146;52.266;7.000;2023-04-27T14:30:15;5.30;;;3.38;;
47615;SDS011;69146;52.266;7.000;2023-04-27T14:32:59;5.40;;;3.20;;
47615;SDS011;69146;52.266;7.000;2023-04-27T14:35:44;5.22;;;2.83;;
47615;SDS011;69146;52.266;7.000;2023-04-27T14:38:30;6.00;;;3.28;;
47615;SDS011;69146;52.266;7.000;2023-04-27T14:41:17;4.88;;;3.17;;
47615;SDS011;69146;52.266;7.000;2023-04-27T14:44:05;5.65;;;3.10;;
47615;SDS011;69146;52.266;7.000;2023-04-27T14:46:51;7.43;;;3.38;;
47615;SDS011;69146;52.266;7.000;2023-04-27T14:52:27;5.43;;;3.05;;
47615;SDS011;69146;52.266;7.000;2023-04-27T14:55:15;53.65;;;18.20;;
47615;SDS011;69146;52.266;7.000;2023-04-27T14:58:00;38.97;;;12.90;;
47615;SDS011;69146;52.266;7.000;2023-04-27T15:00:47;43.10;;;13.57;;
47615;SDS011;69146;52.266;7.000;2023-04-27T15:03:33;13.25;;;6.30;;
47615;SDS011;69146;52.266;7.000;2023-04-27T15:06:18;5.13;;;4.18;;
47615;SDS011;69146;52.266;7.000;2023-04-27T15:09:04;6.28;;;4.50;;
47615;SDS011;69146;52.266;7.000;2023-04-27T15:11:50;6.57;;;4.95;;
47615;SDS011;69146;52.266;7.000;2023-04-27T15:14:35;8.15;;;4.40;;
47615;SDS011;69146;52.266;7.000;2023-04-27T15:22:51;7.78;;;4.53;;
47615;SDS011;69146;52.266;7.000;2023-04-27T15:25:37;7.47;;;4.85;;
47615;SDS011;69146;52.266;7.000;2023-04-27T15:28:21;5.47;;;4.68;;
47615;SDS011;69146;52.266;7.000;2023-04-27T15:31:06;121.35;;;30.83;;
47615;SDS011;69146;52.266;7.000;2023-04-27T15:33:53;11.13;;;5.82;;
47615;SDS011;69146;52.266;7.000;2023-04-27T15:36:37;8.65;;;4.30;;
47615;SDS011;69146;52.266;7.000;2023-04-27T15:39:22;8.68;;;4.00;;
47615;SDS011;69146;52.266;7.000;2023-04-27T15:42:07;5.25;;;4.05;;
47615;SDS011;69146;52.266;7.000;2023-04-27T15:44:52;6.70;;;3.80;;
47615;SDS011;69146;52.266;7.000;2023-04-27T15:47:36;6.13;;;3.88;;
47615;SDS011;69146;52.266;7.000;2023-04-27T15:50:23;5.65;;;4.03;;
47615;SDS011;69146;52.266;7.000;2023-04-27T15:53:08;5.95;;;4.43;;
47615;SDS011;69146;52.266;7.000;2023-04-27T15:55:53;11.23;;;6.38;;
47615;SDS011;69146;52.266;7.000;2023-04-27T15:58:41;7.95;;;5.75;;
47615;SDS011;69146;52.266;7.000;2023-04-27T16:01:26;12.95;;;9.55;;
47615;SDS011;69146;52.266;7.000;2023-04-27T16:04:11;5.90;;;4.35;;
47615;SDS011;69146;52.266;7.000;2023-04-27T16:06:57;7.63;;;4.50;;
47615;SDS011;69146;52.266;7.000;2023-04-27T16:09:42;6.03;;;4.35;;
47615;SDS011;69146;52.266;7.000;2023-04-27T16:12:27;8.18;;;4.90;;
47615;SDS011;69146;52.266;7.000;2023-04-27T16:15:12;5.60;;;4.50;;
47615;SDS011;69146;52.266;7.000;2023-04-27T16:20:43;7.28;;;4.68;;
47615;SDS011;69146;52.266;7.000;2023-04-27T16:23:30;6.10;;;4.80;;
47615;SDS011;69146;52.266;7.000;2023-04-27T16:26:15;5.93;;;4.25;;
47615;SDS011;69146;52.266;7.000;2023-04-27T16:29:01;8.02;;;4.40;;
47615;SDS011;69146;52.266;7.000;2023-04-27T16:31:48;6.15;;;4.43;;
47615;SDS011;69146;52.266;7.000;2023-04-27T16:34:33;7.07;;;4.93;;
47615;SDS011;69146;52.266;7.000;2023-04-27T16:37:20;8.15;;;5.30;;
47615;SDS011;69146;52.266;7.000;2023-04-27T16:40:07;6.45;;;4.30;;
47615;SDS011;69146;52.266;7.000;2023-04-27T16:42:59;7.38;;;4.07;;
47615;SDS011;69146;52.266;7.000;2023-04-27T16:45:47;9.13;;;4.55;;
47615;SDS011;69146;52.266;7.000;2023-04-27T16:48:32;6.50;;;4.55;;
47615;SDS011;69146;52.266;7.000;2023-04-27T16:51:17;8.38;;;4.88;;
47615;SDS011;69146;52.266;7.000;2023-04-27T16:54:02;5.32;;;4.15;;
47615;SDS011;69146;52.266;7.000;2023-04-27T16:56:52;7.03;;;4.22;;
47615;SDS011;69146;52.266;7.000;2023-04-27T16:59:37;6.63;;;4.00;;
47615;SDS011;69146;52.266;7.000;2023-04-27T17:02:22;5.50;;;4.20;;
47615;SDS011;69146;52.266;7.000;2023-04-27T17:05:09;5.80;;;3.85;;
47615;SDS011;69146;52.266;7.000;2023-04-27T17:07:55;6.82;;;4.32;;
47615;SDS011;69146;52.266;7.000;2023-04-27T17:10:40;6.00;;;3.90;;
47615;SDS011;69146;52.266;7.000;2023-04-27T17:13:26;8.07;;;4.35;;